createdAt,value
2023-01-15T00:02:10.065Z,9.74
2023-01-15T00:04:45.804Z,9.80
2023-01-15T00:07:45.854Z,9.82
2023-01-15T00:10:18.853Z,9.83
2023-01-15T00:12:53.557Z,9.85
2023-01-15T00:15:54.485Z,9.88
2023-01-15T00:18:28.665Z,9.93
2023-01-15T00:21:50.089Z,9.98
2023-01-15T00:25:30.633Z,10.03
2023-01-15T00:28:28.976Z,10.03
2023-01-15T00:31:01.200Z,10.04
2023-01-15T00:34:51.732Z,10.06
2023-01-15T00:37:53.634Z,10.10
2023-01-15T00:40:27.700Z,10.12
2023-01-15T00:43:05.725Z,10.14
2023-01-15T00:49:51.654Z,10.25
2023-01-15T00:52:26.987Z,10.28
2023-01-15T00:55:02.658Z,10.32
2023-01-15T00:57:36.548Z,10.40
2023-01-15T01:00:14.205Z,10.45
2023-01-15T01:02:50.607Z,10.46
2023-01-15T01:06:10.413Z,10.48
2023-01-15T01:08:46.178Z,10.51
2023-01-15T01:11:24.638Z,10.55
2023-01-15T01:14:22.287Z,10.58
2023-01-15T01:17:02.379Z,10.63
2023-01-15T01:19:59.533Z,10.71
2023-01-15T01:23:01.871Z,10.77
2023-01-15T01:25:34.452Z,10.80
2023-01-15T01:28:55.683Z,10.83
2023-01-15T01:32:19.283Z,10.88
2023-01-15T01:34:56.895Z,10.87
2023-01-15T01:37:30.679Z,10.85
2023-01-15T01:40:03.289Z,10.86
2023-01-15T01:42:39.936Z,10.85
2023-01-15T01:48:48.658Z,10.81
2023-01-15T01:51:55.241Z,10.79
2023-01-15T01:55:20.261Z,10.75
2023-01-15T01:57:53.782Z,10.70
2023-01-15T02:00:31.758Z,10.70
2023-01-15T02:03:30.577Z,10.67
2023-01-15T02:06:04.512Z,10.67
2023-01-15T02:08:40.888Z,10.63
2023-01-15T02:11:37.878Z,10.61
2023-01-15T02:14:20.599Z,10.59
2023-01-15T02:17:04.524Z,10.55
2023-01-15T02:20:11.606Z,10.52
2023-01-15T02:22:56.308Z,10.51
2023-01-15T02:25:39.700Z,10.49
2023-01-15T02:28:21.780Z,10.48
2023-01-15T02:31:21.532Z,10.46
2023-01-15T02:34:25.531Z,10.40
2023-01-15T02:38:16.842Z,10.38
2023-01-15T02:42:05.341Z,10.33
2023-01-15T02:44:39.747Z,10.31
2023-01-15T02:47:21.081Z,10.34
2023-01-15T02:50:03.716Z,10.36
2023-01-15T02:52:38.551Z,10.41
2023-01-15T02:55:20.437Z,10.44
2023-01-15T02:57:58.679Z,10.46
2023-01-15T03:04:06.503Z,10.46
2023-01-15T03:10:04.777Z,10.49
2023-01-15T03:13:02.249Z,10.50
2023-01-15T03:16:39.745Z,10.53
2023-01-15T03:19:40.665Z,10.51
2023-01-15T03:28:47.212Z,10.57
2023-01-15T03:31:27.943Z,10.60
2023-01-15T03:34:26.073Z,10.65
2023-01-15T03:37:27.005Z,10.67
2023-01-15T03:40:04.549Z,10.69
2023-01-15T03:42:49.198Z,10.72
2023-01-15T03:45:48.505Z,10.73
2023-01-15T03:48:32.799Z,10.78
2023-01-15T03:51:14.644Z,10.79
2023-01-15T03:53:54.613Z,10.80
2023-01-15T03:56:57.750Z,10.82
2023-01-15T04:00:01.539Z,10.84
2023-01-15T04:02:38.425Z,10.88
2023-01-15T04:05:15.380Z,10.90
2023-01-15T04:11:14.724Z,10.98
2023-01-15T04:14:11.835Z,11.00
2023-01-15T04:16:47.578Z,11.02
2023-01-15T04:19:21.577Z,11.06
2023-01-15T04:21:57.848Z,11.12
2023-01-15T04:24:38.043Z,11.15
2023-01-15T04:27:39.279Z,11.19
2023-01-15T04:30:40.514Z,11.20
2023-01-15T04:33:16.266Z,11.24
2023-01-15T04:36:19.727Z,11.26
2023-01-15T04:39:20.415Z,11.30
2023-01-15T04:45:13.876Z,11.34
2023-01-15T04:47:50.731Z,11.35
2023-01-15T04:50:26.870Z,11.37
2023-01-15T04:53:07.267Z,11.40
2023-01-15T04:56:07.912Z,11.43
2023-01-15T04:58:44.073Z,11.46
2023-01-15T05:01:20.174Z,11.49
2023-01-15T05:03:54.347Z,11.51
2023-01-15T05:07:01.608Z,11.52
2023-01-15T05:09:35.714Z,11.55
2023-01-15T05:15:36.575Z,11.57
2023-01-15T05:18:15.060Z,11.57
2023-01-15T05:27:43.499Z,11.51
2023-01-15T05:30:43.889Z,11.50
2023-01-15T05:40:04.206Z,11.44
2023-01-15T05:42:40.471Z,11.41
2023-01-15T05:45:40.446Z,11.40
2023-01-15T05:49:02.866Z,11.38
2023-01-15T05:51:41.424Z,11.36
2023-01-15T05:54:46.783Z,11.38
2023-01-15T05:57:46.635Z,11.39
2023-01-15T06:00:22.086Z,11.37
2023-01-15T06:03:18.209Z,11.36
2023-01-15T06:05:56.573Z,11.35
2023-01-15T06:09:22.046Z,11.33
2023-01-15T06:16:06.390Z,11.22
2023-01-15T06:19:05.877Z,11.19
2023-01-15T06:21:43.943Z,11.16
2023-01-15T06:24:18.006Z,11.15
2023-01-15T06:27:40.465Z,11.14
2023-01-15T06:31:01.762Z,11.11
2023-01-15T06:33:43.695Z,11.07
2023-01-15T06:36:24.844Z,11.08
2023-01-15T06:39:51.855Z,11.06
2023-01-15T06:43:06.003Z,11.04
2023-01-15T06:53:18.094Z,10.98
2023-01-15T06:55:56.574Z,10.97
2023-01-15T06:58:32.517Z,10.97
2023-01-15T07:01:12.279Z,10.99
2023-01-15T07:04:14.442Z,11.02
2023-01-15T07:07:11.096Z,11.04
2023-01-15T07:10:10.210Z,11.08
2023-01-15T07:12:43.217Z,11.12
2023-01-15T07:15:18.842Z,11.16
2023-01-15T07:17:55.535Z,11.22
2023-01-15T07:20:52.947Z,11.28
2023-01-15T07:23:26.701Z,11.32
2023-01-15T07:26:25.417Z,11.35
2023-01-15T07:29:01.723Z,11.40
2023-01-15T07:32:02.587Z,11.45
2023-01-15T07:34:37.096Z,11.48
2023-01-15T07:37:12.713Z,11.53
2023-01-15T07:39:50.006Z,11.56
2023-01-15T07:42:47.749Z,11.60
2023-01-15T07:49:54.988Z,11.64
2023-01-15T07:52:33.008Z,11.63
2023-01-15T07:55:08.513Z,11.63
2023-01-15T07:57:41.379Z,11.65
2023-01-15T08:00:21.078Z,11.69
2023-01-15T08:02:55.381Z,11.72
2023-01-15T08:05:30.462Z,11.74
2023-01-15T08:08:05.777Z,11.78
2023-01-15T08:10:58.810Z,11.82
2023-01-15T08:13:50.326Z,11.85
2023-01-15T08:17:13.849Z,11.85
2023-01-15T08:19:48.667Z,11.86
2023-01-15T08:22:49.894Z,11.88
2023-01-15T08:25:26.720Z,11.89
2023-01-15T08:31:25.225Z,11.91
2023-01-15T08:33:58.044Z,11.92
2023-01-15T08:36:35.896Z,11.92
2023-01-15T08:39:13.707Z,11.93
2023-01-15T08:48:38.113Z,11.98
2023-01-15T08:52:03.508Z,11.99
2023-01-15T08:54:42.024Z,12.01
2023-01-15T08:57:40.525Z,12.02
2023-01-15T09:00:17.509Z,12.02
2023-01-15T09:03:19.786Z,12.01
2023-01-15T09:05:56.636Z,12.01
2023-01-15T09:08:33.605Z,12.02
2023-01-15T09:11:34.479Z,12.01
2023-01-15T09:17:42.125Z,12.03
2023-01-15T09:20:17.048Z,12.02
2023-01-15T09:22:52.913Z,12.05
2023-01-15T09:25:27.274Z,12.09
2023-01-15T09:28:04.547Z,12.12
2023-01-15T09:31:24.841Z,12.18
2023-01-15T09:33:58.684Z,12.24
2023-01-15T09:36:40.430Z,12.28
2023-01-15T09:39:15.144Z,12.30
2023-01-15T09:45:22.727Z,12.37
2023-01-15T09:48:22.994Z,12.39
2023-01-15T09:51:05.904Z,12.36
2023-01-15T09:54:01.201Z,12.35
2023-01-15T09:57:00.837Z,12.32
2023-01-15T09:59:37.640Z,12.28
2023-01-15T10:02:24.272Z,12.25
2023-01-15T10:12:00.223Z,12.18
2023-01-15T10:15:05.525Z,12.12
2023-01-15T10:17:44.461Z,12.10
2023-01-15T10:30:22.329Z,11.98
2023-01-15T10:33:02.649Z,11.93
2023-01-15T10:35:40.583Z,11.92
2023-01-15T10:38:49.829Z,11.91
2023-01-15T10:41:37.878Z,11.86
2023-01-15T10:44:23.652Z,11.87
2023-01-15T10:47:00.079Z,11.88
2023-01-15T10:49:59.193Z,11.87
2023-01-15T10:52:39.685Z,11.88
2023-01-15T10:58:31.036Z,11.87
2023-01-15T11:04:37.483Z,11.79
2023-01-15T11:07:16.645Z,11.74
2023-01-15T11:10:36.866Z,11.73
2023-01-15T11:20:45.002Z,11.71
2023-01-15T11:24:11.097Z,11.69
2023-01-15T11:27:11.156Z,11.67
2023-01-15T11:29:48.758Z,11.67
2023-01-15T11:32:56.373Z,11.70
2023-01-15T11:38:55.260Z,11.81
2023-01-15T11:46:10.167Z,11.81
2023-01-15T11:52:07.633Z,11.89
2023-01-15T11:54:42.831Z,11.93
2023-01-15T11:57:33.611Z,11.95
2023-01-15T12:00:09.093Z,11.98
2023-01-15T12:02:48.260Z,12.02
2023-01-15T12:05:50.656Z,12.05
2023-01-15T12:08:44.028Z,12.10
2023-01-15T12:21:50.148Z,12.02
2023-01-15T12:25:05.874Z,12.01
2023-01-15T12:27:55.730Z,12.05
2023-01-15T12:30:56.097Z,12.06
2023-01-15T12:33:46.497Z,12.07
2023-01-15T12:36:21.405Z,12.08
2023-01-15T12:46:37.788Z,12.02
2023-01-15T12:49:40.213Z,12.02
2023-01-15T12:52:24.564Z,12.01
2023-01-15T12:55:03.558Z,11.99
2023-01-15T12:58:03.847Z,12.03
2023-01-15T13:07:28.358Z,12.04
2023-01-15T13:13:42.818Z,12.01
2023-01-15T13:16:24.635Z,12.01
2023-01-15T13:20:10.948Z,12.00
2023-01-15T13:22:52.064Z,12.04
2023-01-15T13:32:42.408Z,11.96
2023-01-15T13:35:32.036Z,11.97
2023-01-15T13:38:08.986Z,11.96
2023-01-15T13:40:51.934Z,11.96
2023-01-15T13:43:34.138Z,11.98
2023-01-15T13:46:34.697Z,12.01
2023-01-15T13:49:08.780Z,12.00
2023-01-15T13:54:51.848Z,11.99
2023-01-15T13:57:51.151Z,11.98
2023-01-15T14:01:17.214Z,11.94
2023-01-15T14:04:10.097Z,11.92
2023-01-15T14:06:50.355Z,11.94
2023-01-15T14:15:49.687Z,11.89
2023-01-15T14:19:14.739Z,11.88
2023-01-15T14:22:02.892Z,11.84
2023-01-15T14:25:13.729Z,11.86
2023-01-15T14:28:33.590Z,11.82
2023-01-15T14:34:28.849Z,11.80
2023-01-15T14:37:04.708Z,11.81
2023-01-15T14:40:25.586Z,11.79
2023-01-15T14:46:22.087Z,11.77
2023-01-15T14:50:10.213Z,11.76
2023-01-15T14:52:47.380Z,11.76
2023-01-15T14:59:18.275Z,11.75
2023-01-15T15:02:21.997Z,11.74
2023-01-15T15:08:43.902Z,11.68
2023-01-15T15:11:48.652Z,11.68
2023-01-15T15:14:50.297Z,11.70
2023-01-15T15:18:03.739Z,11.67
2023-01-15T15:21:17.086Z,11.67
2023-01-15T15:24:19.907Z,11.59
2023-01-15T15:26:57.887Z,11.53
2023-01-15T15:29:55.410Z,11.50
2023-01-15T15:32:54.662Z,11.44
2023-01-15T15:35:33.056Z,11.40
2023-01-15T15:38:09.174Z,11.39
2023-01-15T15:41:14.836Z,11.31
2023-01-15T15:47:49.122Z,11.20
2023-01-15T15:50:58.118Z,11.15
2023-01-15T15:53:37.993Z,11.16
2023-01-15T15:56:36.460Z,11.13
2023-01-15T16:02:40.933Z,11.08
2023-01-15T16:05:31.496Z,11.05
2023-01-15T16:08:31.187Z,11.01
2023-01-15T16:11:10.330Z,11.00
2023-01-15T16:14:11.824Z,10.96
2023-01-15T16:16:55.157Z,10.94
2023-01-15T16:19:33.122Z,10.93
2023-01-15T16:25:31.825Z,10.82
2023-01-15T16:28:53.025Z,10.79
2023-01-15T16:31:51.368Z,10.75
2023-01-15T16:34:26.515Z,10.71
2023-01-15T16:37:01.338Z,10.68
2023-01-15T16:39:38.835Z,10.67
2023-01-15T16:48:41.525Z,10.46
2023-01-15T16:55:33.387Z,10.22
2023-01-15T17:02:24.675Z,9.89
2023-01-15T17:05:26.285Z,9.78
2023-01-15T17:07:59.109Z,9.60
2023-01-15T17:10:35.120Z,9.43
2023-01-15T17:16:36.813Z,9.14
2023-01-15T17:19:11.913Z,9.00
2023-01-15T17:22:11.538Z,8.92
2023-01-15T17:25:35.056Z,8.83
2023-01-15T17:28:57.662Z,8.76
2023-01-15T17:32:20.681Z,8.69
2023-01-15T17:35:25.400Z,8.67
2023-01-15T17:37:59.414Z,8.62
2023-01-15T17:40:33.775Z,8.58
2023-01-15T17:43:06.699Z,8.56
2023-01-15T17:45:41.998Z,8.55
2023-01-15T17:48:20.883Z,8.54
2023-01-15T17:50:56.154Z,8.57
2023-01-15T17:53:57.801Z,8.56
2023-01-15T18:00:34.735Z,8.52
2023-01-15T18:03:31.541Z,8.54
2023-01-15T18:06:33.992Z,8.55
2023-01-15T18:09:54.887Z,8.55
2023-01-15T18:12:28.230Z,8.55
2023-01-15T18:15:03.833Z,8.53
2023-01-15T18:17:38.600Z,8.54
2023-01-15T18:20:15.559Z,8.54
2023-01-15T18:22:49.478Z,8.52
2023-01-15T18:25:26.393Z,8.51
2023-01-15T18:28:01.982Z,8.51
2023-01-15T18:30:36.753Z,8.55
2023-01-15T18:33:56.464Z,8.54
2023-01-15T18:36:36.568Z,8.52
2023-01-15T18:39:14.762Z,8.54
2023-01-15T18:45:55.046Z,8.50
2023-01-15T18:48:30.084Z,8.45
2023-01-15T18:51:10.961Z,8.45
2023-01-15T18:54:12.237Z,8.43
2023-01-15T18:57:14.189Z,8.44
2023-01-15T19:00:13.832Z,8.44
2023-01-15T19:02:50.908Z,8.45
2023-01-15T19:05:26.342Z,8.44
2023-01-15T19:08:01.162Z,8.44
2023-01-15T19:10:36.995Z,8.41
2023-01-15T19:13:18.242Z,8.40
2023-01-15T19:16:17.062Z,8.40
2023-01-15T19:19:18.962Z,8.36
2023-01-15T19:22:09.558Z,8.34
2023-01-15T19:24:43.631Z,8.33
2023-01-15T19:27:49.555Z,8.33
2023-01-15T19:30:25.557Z,8.33
2023-01-15T19:32:58.217Z,8.34
2023-01-15T19:35:33.953Z,8.35
2023-01-15T19:38:10.781Z,8.36
2023-01-15T19:41:30.837Z,8.35
2023-01-15T19:44:24.982Z,8.32
2023-01-15T19:58:05.644Z,8.28
2023-01-15T20:01:02.729Z,8.28
2023-01-15T20:04:01.249Z,8.26
2023-01-15T20:06:35.984Z,8.24
2023-01-15T20:09:09.697Z,8.25
2023-01-15T20:14:55.239Z,8.26
2023-01-15T20:17:30.804Z,8.28
2023-01-15T20:20:08.440Z,8.27
2023-01-15T20:22:44.343Z,8.27
2023-01-15T20:25:23.779Z,8.25
2023-01-15T20:27:58.023Z,8.24
2023-01-15T20:30:33.110Z,8.25
2023-01-15T20:33:07.408Z,8.28
2023-01-15T20:35:44.184Z,8.27
2023-01-15T20:38:21.052Z,8.28
2023-01-15T20:40:54.702Z,8.29
2023-01-15T20:43:52.240Z,8.27
2023-01-15T20:46:26.299Z,8.26
2023-01-15T20:55:17.045Z,8.19
2023-01-15T21:05:11.136Z,8.23
2023-01-15T21:07:48.231Z,8.17
2023-01-15T21:10:26.534Z,8.16
2023-01-15T21:12:59.361Z,8.19
2023-01-15T21:15:35.649Z,8.20
2023-01-15T21:18:12.640Z,8.18
2023-01-15T21:20:51.508Z,8.17
2023-01-15T21:23:48.067Z,8.17
2023-01-15T21:26:25.039Z,8.16
2023-01-15T21:28:59.679Z,8.20
2023-01-15T21:31:32.935Z,8.17
2023-01-15T21:34:10.033Z,8.16
2023-01-15T21:37:12.360Z,8.16
2023-01-15T21:40:13.089Z,8.17
2023-01-15T21:43:10.219Z,8.17
2023-01-15T21:45:46.169Z,8.15
2023-01-15T21:48:26.049Z,8.16
2023-01-15T21:51:49.320Z,8.18
2023-01-15T21:54:47.957Z,8.17
2023-01-15T21:57:22.881Z,8.16
2023-01-15T22:00:46.105Z,8.17
2023-01-15T22:03:43.879Z,8.17
2023-01-15T22:07:30.646Z,8.16
2023-01-15T22:10:06.374Z,8.13
2023-01-15T22:12:44.873Z,8.11
2023-01-15T22:15:18.832Z,8.12
2023-01-15T22:18:41.148Z,8.14
2023-01-15T22:21:18.106Z,8.15
2023-01-15T22:23:52.767Z,8.15
2023-01-15T22:27:21.365Z,8.15
2023-01-15T22:29:56.693Z,8.16
2023-01-15T22:32:28.688Z,8.14
2023-01-15T22:35:05.799Z,8.14
2023-01-15T22:37:39.083Z,8.15
2023-01-15T22:40:17.013Z,8.14
2023-01-15T22:42:52.362Z,8.14
2023-01-15T22:45:26.883Z,8.17
2023-01-15T22:48:01.527Z,8.17
2023-01-15T22:51:25.179Z,8.15
2023-01-15T22:53:58.646Z,8.13
2023-01-15T22:56:31.478Z,8.13
2023-01-15T22:59:09.370Z,8.11
2023-01-15T23:05:05.596Z,8.15
2023-01-15T23:11:32.030Z,8.11
2023-01-15T23:14:05.798Z,8.08
2023-01-15T23:17:29.326Z,8.07
2023-01-15T23:20:14.325Z,8.08
2023-01-15T23:23:13.845Z,8.08
2023-01-15T23:26:39.669Z,8.07
2023-01-15T23:29:13.142Z,8.05
2023-01-15T23:32:10.662Z,8.04
2023-01-15T23:34:44.513Z,8.02
2023-01-15T23:37:20.104Z,8.00
2023-01-15T23:39:54.894Z,7.96
2023-01-15T23:42:54.293Z,7.93
2023-01-15T23:52:05.624Z,7.76
2023-01-15T23:55:05.182Z,7.71
2023-01-15T23:57:39.034Z,7.66
